East Farmington, Wisconsin
Current Conditions -  °F | °C
As of 4:35 PM on Friday 19 Dec 2014 (Local Time) from KOEO Reporting Station
Overcast Overcast  
Wind Chill: 19°   Ceiling: 2400
Heat Index: 28°   Visibility: 10mi
Dew Point: 24°   Wind: 8mph
Humidity: 86%   Direction: 140°SE
Pressure: 30.23"   Gusts: NA
Location:  45.3193°N, 92.6951°W
Report Text: KOEO 192235Z AUTO 14007KT 10SM OVC024 M02/M05 A3023 RMK AO2 T10251046
Loading
Personal Weather Stations






























Interactive Weather Map New forecast layout! Learn more

10-Day Weather Forecast

Advertisements
Track Severe Weather on mobile